Terminal Aerodrome Forecast
Issued by NWS

Home | Current Version | Previous Version | Text Only | Print | Product List | Glossary On
Versions: 1 2 3 4 5 6 7 8 9 10 11 12 13 14 15 16 17 18 19 20 21 22 23 24 25 26 27 28 29 30 31 32 33
000
FTPA31 PHFO 281100
TAFLNY
TAF
PHNY 281138Z 2812/2912 VRB05KT P6SM SCT025
      TEMPO 2812/2814 BKN025
     FM282000 27008KT P6SM SCT025
      TEMPO 2821/2901 BKN025
     FM290100 04014KT P6SM SCT025
     FM291000 04007KT P6SM SCT025
      AMD NOT SKED=

USA.gov is the U.S. government's official web portal to all federal, state and local government web resources and services.